sensor_id;sensor_type;location;lat;lon;timestamp;temperature;humidity
47482;DHT22;33219;47.410;9.730;2024-01-15T00:02:02;0.10;99.90
47482;DHT22;33219;47.410;9.730;2024-01-15T00:04:29;0.00;99.90
47482;DHT22;33219;47.410;9.730;2024-01-15T00:06:56;0.00;99.90
47482;DHT22;33219;47.410;9.730;2024-01-15T00:09:23;0.00;99.90
47482;DHT22;33219;47.410;9.730;2024-01-15T00:11:50;-0.10;99.90
47482;DHT22;33219;47.410;9.730;2024-01-15T00:14:17;-0.20;99.90
47482;DHT22;33219;47.410;9.730;2024-01-15T00:16:45;-0.20;99.90
47482;DHT22;33219;47.410;9.730;2024-01-15T00:19:12;-0.30;99.90
47482;DHT22;33219;47.410;9.730;2024-01-15T00:21:39;-0.40;99.90
47482;DHT22;33219;47.410;9.730;2024-01-15T00:24:06;-0.40;99.90
47482;DHT22;33219;47.410;9.730;2024-01-15T00:26:33;-0.40;99.90
47482;DHT22;33219;47.410;9.730;2024-01-15T00:29:00;-0.30;99.90
47482;DHT22;33219;47.410;9.730;2024-01-15T00:31:27;-0.30;99.90
47482;DHT22;33219;47.410;9.730;2024-01-15T00:33:55;-0.40;99.90
47482;DHT22;33219;47.410;9.730;2024-01-15T00:36:23;-0.40;99.90
47482;DHT22;33219;47.410;9.730;2024-01-15T00:38:50;-0.40;99.90
47482;DHT22;33219;47.410;9.730;2024-01-15T00:41:17;-0.30;99.90
47482;DHT22;33219;47.410;9.730;2024-01-15T00:43:46;-0.30;99.90
47482;DHT22;33219;47.410;9.730;2024-01-15T00:46:14;-0.30;99.90
47482;DHT22;33219;47.410;9.730;2024-01-15T00:48:41;-0.20;99.90
47482;DHT22;33219;47.410;9.730;2024-01-15T00:51:08;-0.10;99.90
47482;DHT22;33219;47.410;9.730;2024-01-15T00:53:35;-0.10;99.90
47482;DHT22;33219;47.410;9.730;2024-01-15T00:56:02;-0.10;99.90
47482;DHT22;33219;47.410;9.730;2024-01-15T00:58:29;-0.10;99.90
47482;DHT22;33219;47.410;9.730;2024-01-15T01:00:56;-0.10;99.90
47482;DHT22;33219;47.410;9.730;2024-01-15T01:03:22;-0.10;99.90
47482;DHT22;33219;47.410;9.730;2024-01-15T01:05:49;-0.10;99.90
47482;DHT22;33219;47.410;9.730;2024-01-15T01:08:16;0.00;99.90
47482;DHT22;33219;47.410;9.730;2024-01-15T01:10:43;0.00;99.90
47482;DHT22;33219;47.410;9.730;2024-01-15T01:13:10;0.00;99.90
47482;DHT22;33219;47.410;9.730;2024-01-15T01:15:37;0.10;99.90
47482;DHT22;33219;47.410;9.730;2024-01-15T01:18:04;0.00;99.90
47482;DHT22;33219;47.410;9.730;2024-01-15T01:20:31;0.00;99.90
47482;DHT22;33219;47.410;9.730;2024-01-15T01:22:58;0.10;99.90
47482;DHT22;33219;47.410;9.730;2024-01-15T01:25:25;0.10;99.90
47482;DHT22;33219;47.410;9.730;2024-01-15T01:27:52;0.10;99.90
47482;DHT22;33219;47.410;9.730;2024-01-15T01:30:20;0.20;99.90
47482;DHT22;33219;47.410;9.730;2024-01-15T01:32:47;0.20;99.90
47482;DHT22;33219;47.410;9.730;2024-01-15T01:35:13;0.20;99.90
47482;DHT22;33219;47.410;9.730;2024-01-15T01:37:40;0.20;99.90
47482;DHT22;33219;47.410;9.730;2024-01-15T01:40:07;0.30;99.90
47482;DHT22;33219;47.410;9.730;2024-01-15T01:42:34;0.30;99.90
47482;DHT22;33219;47.410;9.730;2024-01-15T01:45:01;0.30;99.90
47482;DHT22;33219;47.410;9.730;2024-01-15T01:47:28;0.30;99.90
47482;DHT22;33219;47.410;9.730;2024-01-15T01:49:55;0.40;99.90
47482;DHT22;33219;47.410;9.730;2024-01-15T01:52:22;0.40;99.90
47482;DHT22;33219;47.410;9.730;2024-01-15T01:54:49;0.40;99.90
47482;DHT22;33219;47.410;9.730;2024-01-15T01:57:16;0.40;99.90
47482;DHT22;33219;47.410;9.730;2024-01-15T01:59:43;0.50;99.90
47482;DHT22;33219;47.410;9.730;2024-01-15T02:02:10;0.50;99.90
47482;DHT22;33219;47.410;9.730;2024-01-15T02:04:38;0.50;99.90
47482;DHT22;33219;47.410;9.730;2024-01-15T02:07:04;0.50;99.90
47482;DHT22;33219;47.410;9.730;2024-01-15T02:09:31;0.60;99.90
47482;DHT22;33219;47.410;9.730;2024-01-15T02:11:58;0.60;99.90
47482;DHT22;33219;47.410;9.730;2024-01-15T02:14:26;0.60;99.90
47482;DHT22;33219;47.410;9.730;2024-01-15T02:16:52;0.60;99.90
47482;DHT22;33219;47.410;9.730;2024-01-15T02:19:19;0.70;99.90
47482;DHT22;33219;47.410;9.730;2024-01-15T02:21:46;0.70;99.90
47482;DHT22;33219;47.410;9.730;2024-01-15T02:24:13;0.70;99.90
47482;DHT22;33219;47.410;9.730;2024-01-15T02:26:40;0.70;99.90
47482;DHT22;33219;47.410;9.730;2024-01-15T02:29:07;0.80;99.90
47482;DHT22;33219;47.410;9.730;2024-01-15T02:31:35;1.00;99.90
47482;DHT22;33219;47.410;9.730;2024-01-15T02:34:02;1.20;99.90
47482;DHT22;33219;47.410;9.730;2024-01-15T02:36:29;1.30;99.90
47482;DHT22;33219;47.410;9.730;2024-01-15T02:38:56;1.40;99.90
47482;DHT22;33219;47.410;9.730;2024-01-15T02:41:23;1.40;99.90
47482;DHT22;33219;47.410;9.730;2024-01-15T02:43:50;1.40;99.90
47482;DHT22;33219;47.410;9.730;2024-01-15T02:46:17;1.50;99.90
47482;DHT22;33219;47.410;9.730;2024-01-15T02:48:44;1.50;99.90
47482;DHT22;33219;47.410;9.730;2024-01-15T02:51:11;1.50;99.90
47482;DHT22;33219;47.410;9.730;2024-01-15T02:53:38;1.60;99.90
47482;DHT22;33219;47.410;9.730;2024-01-15T02:56:06;1.60;99.90
47482;DHT22;33219;47.410;9.730;2024-01-15T02:58:33;1.60;99.90
47482;DHT22;33219;47.410;9.730;2024-01-15T03:01:00;1.70;99.90
47482;DHT22;33219;47.410;9.730;2024-01-15T03:03:27;1.80;99.90
47482;DHT22;33219;47.410;9.730;2024-01-15T03:05:54;1.70;99.90
47482;DHT22;33219;47.410;9.730;2024-01-15T03:08:21;1.80;99.90
47482;DHT22;33219;47.410;9.730;2024-01-15T03:10:48;1.80;99.90
47482;DHT22;33219;47.410;9.730;2024-01-15T03:13:15;1.80;99.90
47482;DHT22;33219;47.410;9.730;2024-01-15T03:15:42;1.80;99.90
47482;DHT22;33219;47.410;9.730;2024-01-15T03:18:09;1.80;99.90
47482;DHT22;33219;47.410;9.730;2024-01-15T03:20:36;1.80;99.90
47482;DHT22;33219;47.410;9.730;2024-01-15T03:23:03;1.70;99.90
47482;DHT22;33219;47.410;9.730;2024-01-15T03:25:30;1.70;99.90
47482;DHT22;33219;47.410;9.730;2024-01-15T03:27:56;1.70;99.90
47482;DHT22;33219;47.410;9.730;2024-01-15T03:30:23;1.70;99.90
47482;DHT22;33219;47.410;9.730;2024-01-15T03:32:50;1.60;99.90
47482;DHT22;33219;47.410;9.730;2024-01-15T03:35:17;1.60;99.90
47482;DHT22;33219;47.410;9.730;2024-01-15T03:37:44;1.50;99.90
47482;DHT22;33219;47.410;9.730;2024-01-15T03:40:11;1.60;99.90
47482;DHT22;33219;47.410;9.730;2024-01-15T03:42:38;1.50;99.90
47482;DHT22;33219;47.410;9.730;2024-01-15T03:45:05;1.50;99.90
47482;DHT22;33219;47.410;9.730;2024-01-15T03:47:32;1.50;99.90
47482;DHT22;33219;47.410;9.730;2024-01-15T03:49:59;1.50;99.90
47482;DHT22;33219;47.410;9.730;2024-01-15T03:52:26;1.50;99.90
47482;DHT22;33219;47.410;9.730;2024-01-15T03:54:53;1.40;99.90
47482;DHT22;33219;47.410;9.730;2024-01-15T03:57:20;1.50;99.90
47482;DHT22;33219;47.410;9.730;2024-01-15T03:59:47;1.50;99.90
47482;DHT22;33219;47.410;9.730;2024-01-15T04:02:13;1.40;99.90
47482;DHT22;33219;47.410;9.730;2024-01-15T04:04:41;1.40;99.90
47482;DHT22;33219;47.410;9.730;2024-01-15T04:07:08;1.40;99.90
47482;DHT22;33219;47.410;9.730;2024-01-15T04:09:35;1.40;99.90
47482;DHT22;33219;47.410;9.730;2024-01-15T04:12:02;1.40;99.90
47482;DHT22;33219;47.410;9.730;2024-01-15T04:14:29;1.50;99.90
47482;DHT22;33219;47.410;9.730;2024-01-15T04:16:56;1.40;99.90
47482;DHT22;33219;47.410;9.730;2024-01-15T04:19:23;1.40;99.90
47482;DHT22;33219;47.410;9.730;2024-01-15T04:21:49;1.40;99.90
47482;DHT22;33219;47.410;9.730;2024-01-15T04:24:16;1.40;99.90
47482;DHT22;33219;47.410;9.730;2024-01-15T04:26:43;1.40;99.90
47482;DHT22;33219;47.410;9.730;2024-01-15T04:29:10;1.30;99.90
47482;DHT22;33219;47.410;9.730;2024-01-15T04:31:37;1.30;99.90
47482;DHT22;33219;47.410;9.730;2024-01-15T04:34:04;1.30;99.90
47482;DHT22;33219;47.410;9.730;2024-01-15T04:36:31;1.30;99.90
47482;DHT22;33219;47.410;9.730;2024-01-15T04:38:58;1.30;99.90
47482;DHT22;33219;47.410;9.730;2024-01-15T04:41:25;1.30;99.90
47482;DHT22;33219;47.410;9.730;2024-01-15T04:43:52;1.20;99.90
47482;DHT22;33219;47.410;9.730;2024-01-15T04:46:18;1.20;99.90
47482;DHT22;33219;47.410;9.730;2024-01-15T04:48:45;1.30;99.90
47482;DHT22;33219;47.410;9.730;2024-01-15T04:51:12;1.30;99.90
47482;DHT22;33219;47.410;9.730;2024-01-15T04:53:39;1.20;99.90
47482;DHT22;33219;47.410;9.730;2024-01-15T04:56:06;1.20;99.90
47482;DHT22;33219;47.410;9.730;2024-01-15T04:58:33;1.20;99.90
47482;DHT22;33219;47.410;9.730;2024-01-15T05:01:02;1.20;99.90
47482;DHT22;33219;47.410;9.730;2024-01-15T05:03:29;1.20;99.90
47482;DHT22;33219;47.410;9.730;2024-01-15T05:05:57;1.20;99.90
47482;DHT22;33219;47.410;9.730;2024-01-15T05:08:24;1.30;99.90
47482;DHT22;33219;47.410;9.730;2024-01-15T05:10:51;1.30;99.90
47482;DHT22;33219;47.410;9.730;2024-01-15T05:13:18;1.30;99.90
47482;DHT22;33219;47.410;9.730;2024-01-15T05:15:44;1.20;99.90
47482;DHT22;33219;47.410;9.730;2024-01-15T05:18:11;1.30;99.90
47482;DHT22;33219;47.410;9.730;2024-01-15T05:20:38;1.20;99.90
47482;DHT22;33219;47.410;9.730;2024-01-15T05:23:05;1.20;99.90
47482;DHT22;33219;47.410;9.730;2024-01-15T05:25:32;1.20;99.90
47482;DHT22;33219;47.410;9.730;2024-01-15T05:27:59;1.20;99.90
47482;DHT22;33219;47.410;9.730;2024-01-15T05:30:26;1.20;99.90
47482;DHT22;33219;47.410;9.730;2024-01-15T05:32:52;1.20;99.90
47482;DHT22;33219;47.410;9.730;2024-01-15T05:35:20;1.20;99.90
47482;DHT22;33219;47.410;9.730;2024-01-15T05:37:47;1.10;99.90
47482;DHT22;33219;47.410;9.730;2024-01-15T05:40:14;1.10;99.90
47482;DHT22;33219;47.410;9.730;2024-01-15T05:42:41;1.10;99.90
47482;DHT22;33219;47.410;9.730;2024-01-15T05:45:08;1.20;99.90
47482;DHT22;33219;47.410;9.730;2024-01-15T05:47:35;1.20;99.90
47482;DHT22;33219;47.410;9.730;2024-01-15T05:50:02;1.20;99.90
47482;DHT22;33219;47.410;9.730;2024-01-15T05:52:29;1.20;99.90
47482;DHT22;33219;47.410;9.730;2024-01-15T05:54:56;1.20;99.90
47482;DHT22;33219;47.410;9.730;2024-01-15T05:57:22;1.20;99.90
47482;DHT22;33219;47.410;9.730;2024-01-15T05:59:49;1.20;99.90
47482;DHT22;33219;47.410;9.730;2024-01-15T06:02:16;1.20;99.90
47482;DHT22;33219;47.410;9.730;2024-01-15T06:04:43;1.20;99.90
47482;DHT22;33219;47.410;9.730;2024-01-15T06:07:10;1.20;99.90
47482;DHT22;33219;47.410;9.730;2024-01-15T06:09:37;1.20;99.90
47482;DHT22;33219;47.410;9.730;2024-01-15T06:12:04;1.20;99.90
47482;DHT22;33219;47.410;9.730;2024-01-15T06:14:31;1.20;99.90
47482;DHT22;33219;47.410;9.730;2024-01-15T06:16:58;1.20;99.90
47482;DHT22;33219;47.410;9.730;2024-01-15T06:19:25;1.20;99.90
47482;DHT22;33219;47.410;9.730;2024-01-15T06:21:52;1.20;99.90
47482;DHT22;33219;47.410;9.730;2024-01-15T06:24:18;1.20;99.90
47482;DHT22;33219;47.410;9.730;2024-01-15T06:26:46;1.20;99.90
47482;DHT22;33219;47.410;9.730;2024-01-15T06:29:13;1.20;99.90
47482;DHT22;33219;47.410;9.730;2024-01-15T06:31:41;1.20;99.90
47482;DHT22;33219;47.410;9.730;2024-01-15T06:36:59;1.10;99.90
47482;DHT22;33219;47.410;9.730;2024-01-15T06:48:12;1.10;99.90
47482;DHT22;33219;47.410;9.730;2024-01-15T06:50:42;1.10;99.90
47482;DHT22;33219;47.410;9.730;2024-01-15T06:53:23;1.20;99.90
47482;DHT22;33219;47.410;9.730;2024-01-15T07:48:39;1.40;99.90
47482;DHT22;33219;47.410;9.730;2024-01-15T07:56:56;1.40;99.90
47482;DHT22;33219;47.410;9.730;2024-01-15T08:48:51;0.90;99.90
47482;DHT22;33219;47.410;9.730;2024-01-15T08:51:30;0.90;99.90
47482;DHT22;33219;47.410;9.730;2024-01-15T08:59:57;1.00;99.90
47482;DHT22;33219;47.410;9.730;2024-01-15T09:05:44;1.00;99.90
47482;DHT22;33219;47.410;9.730;2024-01-15T09:08:25;1.00;99.90
47482;DHT22;33219;47.410;9.730;2024-01-15T09:10:53;1.00;99.90
47482;DHT22;33219;47.410;9.730;2024-01-15T09:16:42;0.90;99.90
47482;DHT22;33219;47.410;9.730;2024-01-15T09:22:09;1.00;99.90
47482;DHT22;33219;47.410;9.730;2024-01-15T09:25:01;1.00;99.90
47482;DHT22;33219;47.410;9.730;2024-01-15T09:27:47;1.10;99.90
47482;DHT22;33219;47.410;9.730;2024-01-15T09:36:11;1.10;99.90
47482;DHT22;33219;47.410;9.730;2024-01-15T09:39:17;1.10;99.90
47482;DHT22;33219;47.410;9.730;2024-01-15T09:44:42;1.20;99.90
47482;DHT22;33219;47.410;9.730;2024-01-15T09:47:35;1.20;99.90
47482;DHT22;33219;47.410;9.730;2024-01-15T09:55:38;1.20;99.90
47482;DHT22;33219;47.410;9.730;2024-01-15T09:58:30;1.20;99.90
47482;DHT22;33219;47.410;9.730;2024-01-15T10:01:33;1.20;99.90
47482;DHT22;33219;47.410;9.730;2024-01-15T10:03:42;1.20;99.90
47482;DHT22;33219;47.410;9.730;2024-01-15T10:06:15;1.20;99.90
47482;DHT22;33219;47.410;9.730;2024-01-15T10:08:43;1.40;99.90
47482;DHT22;33219;47.410;9.730;2024-01-15T10:11:15;1.40;99.90
47482;DHT22;33219;47.410;9.730;2024-01-15T10:13:47;1.40;99.90
47482;DHT22;33219;47.410;9.730;2024-01-15T10:16:16;1.40;99.90
47482;DHT22;33219;47.410;9.730;2024-01-15T10:18:47;1.50;99.90
47482;DHT22;33219;47.410;9.730;2024-01-15T10:21:21;1.40;99.90
47482;DHT22;33219;47.410;9.730;2024-01-15T10:23:52;1.30;99.90
47482;DHT22;33219;47.410;9.730;2024-01-15T10:26:25;1.30;99.90
47482;DHT22;33219;47.410;9.730;2024-01-15T10:28:55;1.30;99.90
47482;DHT22;33219;47.410;9.730;2024-01-15T10:31:28;1.40;99.90
47482;DHT22;33219;47.410;9.730;2024-01-15T10:34:14;1.40;99.90
47482;DHT22;33219;47.410;9.730;2024-01-15T10:36:47;1.40;99.90
47482;DHT22;33219;47.410;9.730;2024-01-15T10:39:16;1.50;99.90
47482;DHT22;33219;47.410;9.730;2024-01-15T10:41:46;1.50;99.90
47482;DHT22;33219;47.410;9.730;2024-01-15T10:44:14;1.60;99.90
47482;DHT22;33219;47.410;9.730;2024-01-15T10:46:42;1.60;99.90
47482;DHT22;33219;47.410;9.730;2024-01-15T10:49:11;1.60;99.90
47482;DHT22;33219;47.410;9.730;2024-01-15T10:51:41;1.50;99.90
47482;DHT22;33219;47.410;9.730;2024-01-15T10:54:09;1.70;99.90
47482;DHT22;33219;47.410;9.730;2024-01-15T10:56:40;1.50;99.90
47482;DHT22;33219;47.410;9.730;2024-01-15T10:59:09;1.50;99.90
47482;DHT22;33219;47.410;9.730;2024-01-15T11:01:38;1.50;99.90
47482;DHT22;33219;47.410;9.730;2024-01-15T11:04:07;1.40;99.90
47482;DHT22;33219;47.410;9.730;2024-01-15T11:06:42;1.50;99.90
47482;DHT22;33219;47.410;9.730;2024-01-15T11:09:13;1.50;99.90
47482;DHT22;33219;47.410;9.730;2024-01-15T11:11:43;1.60;99.90
47482;DHT22;33219;47.410;9.730;2024-01-15T11:16:53;1.60;99.90
47482;DHT22;33219;47.410;9.730;2024-01-15T11:19:23;1.50;99.90
47482;DHT22;33219;47.410;9.730;2024-01-15T11:21:51;1.50;99.90
47482;DHT22;33219;47.410;9.730;2024-01-15T11:24:35;1.50;99.90
47482;DHT22;33219;47.410;9.730;2024-01-15T11:27:03;1.50;99.90
47482;DHT22;33219;47.410;9.730;2024-01-15T11:29:32;1.50;99.90
47482;DHT22;33219;47.410;9.730;2024-01-15T11:32:01;1.50;99.90
47482;DHT22;33219;47.410;9.730;2024-01-15T11:37:15;1.60;99.90
47482;DHT22;33219;47.410;9.730;2024-01-15T11:39:44;1.70;99.90
47482;DHT22;33219;47.410;9.730;2024-01-15T11:42:15;1.70;99.90
47482;DHT22;33219;47.410;9.730;2024-01-15T11:44:45;1.70;99.90
47482;DHT22;33219;47.410;9.730;2024-01-15T11:47:14;1.60;99.90
47482;DHT22;33219;47.410;9.730;2024-01-15T11:50:00;1.60;99.90
47482;DHT22;33219;47.410;9.730;2024-01-15T11:52:37;1.60;99.90
47482;DHT22;33219;47.410;9.730;2024-01-15T11:55:06;1.60;99.90
47482;DHT22;33219;47.410;9.730;2024-01-15T12:00:15;1.70;99.90
47482;DHT22;33219;47.410;9.730;2024-01-15T12:02:43;1.70;99.90
47482;DHT22;33219;47.410;9.730;2024-01-15T12:05:12;1.70;99.90
47482;DHT22;33219;47.410;9.730;2024-01-15T12:07:43;1.70;99.90
47482;DHT22;33219;47.410;9.730;2024-01-15T12:10:10;1.70;99.90
47482;DHT22;33219;47.410;9.730;2024-01-15T12:15:14;1.70;99.90
47482;DHT22;33219;47.410;9.730;2024-01-15T12:17:42;1.80;99.90
47482;DHT22;33219;47.410;9.730;2024-01-15T12:20:11;1.90;99.90
47482;DHT22;33219;47.410;9.730;2024-01-15T12:22:40;1.90;99.90
47482;DHT22;33219;47.410;9.730;2024-01-15T12:25:15;1.90;99.90
47482;DHT22;33219;47.410;9.730;2024-01-15T12:27:46;2.00;99.90
47482;DHT22;33219;47.410;9.730;2024-01-15T12:30:20;2.00;99.90
47482;DHT22;33219;47.410;9.730;2024-01-15T12:32:53;2.20;99.90
47482;DHT22;33219;47.410;9.730;2024-01-15T12:35:23;2.00;99.90
47482;DHT22;33219;47.410;9.730;2024-01-15T12:37:59;2.00;99.90
47482;DHT22;33219;47.410;9.730;2024-01-15T12:40:30;2.10;99.90
47482;DHT22;33219;47.410;9.730;2024-01-15T12:43:02;2.10;99.90
47482;DHT22;33219;47.410;9.730;2024-01-15T12:45:32;2.20;99.90
47482;DHT22;33219;47.410;9.730;2024-01-15T12:48:07;2.20;99.90
47482;DHT22;33219;47.410;9.730;2024-01-15T12:50:42;2.20;99.90
47482;DHT22;33219;47.410;9.730;2024-01-15T12:53:19;2.20;99.90
47482;DHT22;33219;47.410;9.730;2024-01-15T12:55:51;2.20;99.90
47482;DHT22;33219;47.410;9.730;2024-01-15T12:58:35;2.10;99.90
47482;DHT22;33219;47.410;9.730;2024-01-15T13:01:10;2.20;99.90
47482;DHT22;33219;47.410;9.730;2024-01-15T13:03:41;2.10;99.90
47482;DHT22;33219;47.410;9.730;2024-01-15T13:08:59;2.20;99.90
47482;DHT22;33219;47.410;9.730;2024-01-15T13:11:33;2.20;99.90
47482;DHT22;33219;47.410;9.730;2024-01-15T13:14:04;2.20;99.90
47482;DHT22;33219;47.410;9.730;2024-01-15T13:16:43;2.20;99.90
47482;DHT22;33219;47.410;9.730;2024-01-15T13:24:19;2.20;99.90
47482;DHT22;33219;47.410;9.730;2024-01-15T13:26:47;2.20;99.90
47482;DHT22;33219;47.410;9.730;2024-01-15T13:29:16;2.20;99.90
47482;DHT22;33219;47.410;9.730;2024-01-15T13:31:48;2.20;99.90
47482;DHT22;33219;47.410;9.730;2024-01-15T13:34:20;2.20;99.90
47482;DHT22;33219;47.410;9.730;2024-01-15T14:24:56;2.50;99.90
47482;DHT22;33219;47.410;9.730;2024-01-15T14:27:31;2.40;99.90
47482;DHT22;33219;47.410;9.730;2024-01-15T14:30:19;2.50;99.80
47482;DHT22;33219;47.410;9.730;2024-01-15T14:35:21;2.60;99.50
47482;DHT22;33219;47.410;9.730;2024-01-15T14:37:49;2.70;99.20
47482;DHT22;33219;47.410;9.730;2024-01-15T14:40:34;2.70;99.10
47482;DHT22;33219;47.410;9.730;2024-01-15T14:42:47;2.80;99.00
47482;DHT22;33219;47.410;9.730;2024-01-15T14:45:16;2.80;98.70
47482;DHT22;33219;47.410;9.730;2024-01-15T14:47:43;2.80;98.90
47482;DHT22;33219;47.410;9.730;2024-01-15T14:50:14;2.70;98.90
47482;DHT22;33219;47.410;9.730;2024-01-15T14:52:42;2.70;98.60
47482;DHT22;33219;47.410;9.730;2024-01-15T14:55:11;2.70;99.20
47482;DHT22;33219;47.410;9.730;2024-01-15T14:57:56;2.70;98.70
47482;DHT22;33219;47.410;9.730;2024-01-15T15:00:25;2.80;98.70
47482;DHT22;33219;47.410;9.730;2024-01-15T15:03:09;2.80;98.50
47482;DHT22;33219;47.410;9.730;2024-01-15T15:05:32;2.80;98.40
47482;DHT22;33219;47.410;9.730;2024-01-15T15:08:07;2.80;98.40
47482;DHT22;33219;47.410;9.730;2024-01-15T15:10:36;2.90;98.30
47482;DHT22;33219;47.410;9.730;2024-01-15T15:13:08;2.90;98.40
47482;DHT22;33219;47.410;9.730;2024-01-15T15:15:40;2.90;97.90
47482;DHT22;33219;47.410;9.730;2024-01-15T15:18:09;3.00;98.00
47482;DHT22;33219;47.410;9.730;2024-01-15T15:20:37;2.90;98.30
47482;DHT22;33219;47.410;9.730;2024-01-15T15:23:04;2.90;98.70
47482;DHT22;33219;47.410;9.730;2024-01-15T15:25:34;2.90;98.30
47482;DHT22;33219;47.410;9.730;2024-01-15T15:28:01;2.90;98.10
47482;DHT22;33219;47.410;9.730;2024-01-15T15:30:31;2.90;97.80
47482;DHT22;33219;47.410;9.730;2024-01-15T15:32:58;2.90;97.70
47482;DHT22;33219;47.410;9.730;2024-01-15T15:35:25;2.90;97.50
47482;DHT22;33219;47.410;9.730;2024-01-15T15:37:53;3.00;97.70
47482;DHT22;33219;47.410;9.730;2024-01-15T15:40:21;2.90;97.90
47482;DHT22;33219;47.410;9.730;2024-01-15T15:42:52;3.00;98.00
47482;DHT22;33219;47.410;9.730;2024-01-15T15:45:20;3.00;97.80
47482;DHT22;33219;47.410;9.730;2024-01-15T15:47:47;2.90;97.90
47482;DHT22;33219;47.410;9.730;2024-01-15T15:50:14;2.90;98.10
47482;DHT22;33219;47.410;9.730;2024-01-15T15:52:41;2.90;98.30
47482;DHT22;33219;47.410;9.730;2024-01-15T15:55:08;2.90;98.80
47482;DHT22;33219;47.410;9.730;2024-01-15T15:57:35;2.80;98.60
47482;DHT22;33219;47.410;9.730;2024-01-15T16:00:04;2.80;98.50
47482;DHT22;33219;47.410;9.730;2024-01-15T16:02:31;2.80;98.60
47482;DHT22;33219;47.410;9.730;2024-01-15T16:04:58;2.70;98.80
47482;DHT22;33219;47.410;9.730;2024-01-15T16:07:25;2.80;99.10
47482;DHT22;33219;47.410;9.730;2024-01-15T16:09:54;2.70;99.00
47482;DHT22;33219;47.410;9.730;2024-01-15T16:12:21;2.70;99.30
47482;DHT22;33219;47.410;9.730;2024-01-15T16:14:48;2.70;99.30
47482;DHT22;33219;47.410;9.730;2024-01-15T16:17:19;2.60;99.40
47482;DHT22;33219;47.410;9.730;2024-01-15T16:19:43;2.60;99.60
47482;DHT22;33219;47.410;9.730;2024-01-15T16:22:11;2.60;99.60
47482;DHT22;33219;47.410;9.730;2024-01-15T16:24:38;2.60;99.70
47482;DHT22;33219;47.410;9.730;2024-01-15T16:27:05;2.60;99.90
47482;DHT22;33219;47.410;9.730;2024-01-15T16:29:32;2.60;99.90
47482;DHT22;33219;47.410;9.730;2024-01-15T16:31:58;2.60;99.50
47482;DHT22;33219;47.410;9.730;2024-01-15T16:34:25;2.60;99.70
47482;DHT22;33219;47.410;9.730;2024-01-15T16:36:52;2.60;99.90
47482;DHT22;33219;47.410;9.730;2024-01-15T16:39:19;2.50;99.90
47482;DHT22;33219;47.410;9.730;2024-01-15T16:41:45;2.50;99.90
47482;DHT22;33219;47.410;9.730;2024-01-15T16:44:12;2.40;99.90
47482;DHT22;33219;47.410;9.730;2024-01-15T16:46:39;2.40;99.90
47482;DHT22;33219;47.410;9.730;2024-01-15T16:49:06;2.30;99.90
47482;DHT22;33219;47.410;9.730;2024-01-15T16:51:34;2.30;99.90
47482;DHT22;33219;47.410;9.730;2024-01-15T16:54:01;2.30;99.90
47482;DHT22;33219;47.410;9.730;2024-01-15T16:56:28;2.20;99.90
47482;DHT22;33219;47.410;9.730;2024-01-15T16:58:55;2.20;99.90
47482;DHT22;33219;47.410;9.730;2024-01-15T17:01:22;2.20;99.90
47482;DHT22;33219;47.410;9.730;2024-01-15T17:03:49;2.10;99.90
47482;DHT22;33219;47.410;9.730;2024-01-15T17:06:18;2.10;99.90
47482;DHT22;33219;47.410;9.730;2024-01-15T17:08:44;2.00;99.90
47482;DHT22;33219;47.410;9.730;2024-01-15T17:11:11;2.00;99.90
47482;DHT22;33219;47.410;9.730;2024-01-15T17:13:38;1.90;99.90
47482;DHT22;33219;47.410;9.730;2024-01-15T17:16:05;1.90;99.90
47482;DHT22;33219;47.410;9.730;2024-01-15T17:18:32;1.90;99.90
47482;DHT22;33219;47.410;9.730;2024-01-15T17:20:59;1.80;99.90
47482;DHT22;33219;47.410;9.730;2024-01-15T17:23:26;1.80;99.90
47482;DHT22;33219;47.410;9.730;2024-01-15T17:25:53;1.70;99.90
47482;DHT22;33219;47.410;9.730;2024-01-15T17:28:20;1.70;99.90
47482;DHT22;33219;47.410;9.730;2024-01-15T17:30:48;1.70;99.90
47482;DHT22;33219;47.410;9.730;2024-01-15T17:33:14;1.60;99.90
47482;DHT22;33219;47.410;9.730;2024-01-15T17:35:52;1.60;99.90
47482;DHT22;33219;47.410;9.730;2024-01-15T17:38:10;1.60;99.90
47482;DHT22;33219;47.410;9.730;2024-01-15T17:40:37;1.60;99.90
47482;DHT22;33219;47.410;9.730;2024-01-15T17:43:04;1.50;99.90
47482;DHT22;33219;47.410;9.730;2024-01-15T17:45:32;1.50;99.90
47482;DHT22;33219;47.410;9.730;2024-01-15T17:47:59;1.50;99.90
47482;DHT22;33219;47.410;9.730;2024-01-15T17:50:26;1.50;99.90
47482;DHT22;33219;47.410;9.730;2024-01-15T17:52:52;1.40;99.90
47482;DHT22;33219;47.410;9.730;2024-01-15T17:55:19;1.50;99.90
47482;DHT22;33219;47.410;9.730;2024-01-15T17:57:53;1.50;99.90
47482;DHT22;33219;47.410;9.730;2024-01-15T18:00:17;1.50;99.90
47482;DHT22;33219;47.410;9.730;2024-01-15T18:02:45;1.50;99.90
47482;DHT22;33219;47.410;9.730;2024-01-15T18:05:12;1.50;99.90
47482;DHT22;33219;47.410;9.730;2024-01-15T18:07:39;1.50;99.90
47482;DHT22;33219;47.410;9.730;2024-01-15T18:10:07;1.50;99.90
47482;DHT22;33219;47.410;9.730;2024-01-15T18:12:38;1.50;99.90
47482;DHT22;33219;47.410;9.730;2024-01-15T18:15:05;1.40;99.90
47482;DHT22;33219;47.410;9.730;2024-01-15T18:17:32;1.50;99.90
47482;DHT22;33219;47.410;9.730;2024-01-15T18:20:01;1.40;99.90
47482;DHT22;33219;47.410;9.730;2024-01-15T18:22:28;1.50;99.90
47482;DHT22;33219;47.410;9.730;2024-01-15T18:24:55;1.50;99.90
47482;DHT22;33219;47.410;9.730;2024-01-15T18:27:22;1.50;99.90
47482;DHT22;33219;47.410;9.730;2024-01-15T18:29:49;1.40;99.90
47482;DHT22;33219;47.410;9.730;2024-01-15T18:32:16;1.40;99.90
47482;DHT22;33219;47.410;9.730;2024-01-15T18:34:43;1.40;99.90
47482;DHT22;33219;47.410;9.730;2024-01-15T18:37:10;1.40;99.90
47482;DHT22;33219;47.410;9.730;2024-01-15T18:39:37;1.50;99.90
47482;DHT22;33219;47.410;9.730;2024-01-15T18:42:04;1.50;99.90
47482;DHT22;33219;47.410;9.730;2024-01-15T18:44:30;1.50;99.90
47482;DHT22;33219;47.410;9.730;2024-01-15T18:46:58;1.50;99.90
47482;DHT22;33219;47.410;9.730;2024-01-15T18:49:25;1.50;99.90
47482;DHT22;33219;47.410;9.730;2024-01-15T18:51:51;1.50;99.90
47482;DHT22;33219;47.410;9.730;2024-01-15T18:54:18;1.50;99.90
47482;DHT22;33219;47.410;9.730;2024-01-15T18:56:45;1.50;99.90
47482;DHT22;33219;47.410;9.730;2024-01-15T18:59:12;1.50;99.90
47482;DHT22;33219;47.410;9.730;2024-01-15T19:01:39;1.50;99.90
47482;DHT22;33219;47.410;9.730;2024-01-15T19:04:06;1.50;99.90
47482;DHT22;33219;47.410;9.730;2024-01-15T19:06:37;1.50;99.90
47482;DHT22;33219;47.410;9.730;2024-01-15T19:09:04;1.50;99.90
47482;DHT22;33219;47.410;9.730;2024-01-15T19:11:31;1.50;99.90
47482;DHT22;33219;47.410;9.730;2024-01-15T19:13:58;1.50;99.90
47482;DHT22;33219;47.410;9.730;2024-01-15T19:16:25;1.50;99.90
47482;DHT22;33219;47.410;9.730;2024-01-15T19:18:52;1.50;99.90
47482;DHT22;33219;47.410;9.730;2024-01-15T19:21:19;1.40;99.90
47482;DHT22;33219;47.410;9.730;2024-01-15T19:23:46;1.40;99.90
47482;DHT22;33219;47.410;9.730;2024-01-15T19:26:19;1.40;99.90
47482;DHT22;33219;47.410;9.730;2024-01-15T19:28:46;1.50;99.90
47482;DHT22;33219;47.410;9.730;2024-01-15T19:31:13;1.60;99.90
47482;DHT22;33219;47.410;9.730;2024-01-15T19:33:40;1.40;99.90